Time;durP1;ratioP1;P1;durP2;ratioP2;P2;SDS_P1;SDS_P2;PMS_P1;PMS_P2;Temp;Humidity;BMP_temperature;BMP_pressure;BME280_temperature;BME280_humidity;BME280_pressure;Samples;Min_cycle;Max_cycle;Signal;HPM_P1;HPM_P2
2022/04/29 00:00:26;;;;;;;58.45;3.50;;;;;;;;;;5094068;28;20669;-72
2022/04/29 00:02:53;;;;;;;58.25;2.50;;;;;;;;;;5094103;28;20208;-71
2022/04/29 00:05:21;;;;;;;58.38;2.70;;;;;;;;;;5091617;28;20294;-72
2022/04/29 00:07:48;;;;;;;58.17;2.88;;;;;;;;;;5092785;28;20219;-71
2022/04/29 00:10:16;;;;;;;58.40;2.80;;;;;;;;;;5093677;28;20311;-71
2022/04/29 00:12:46;;;;;;;58.50;2.80;;;;;;;;;;5093959;28;20254;-72
2022/04/29 00:15:14;;;;;;;58.60;2.90;;;;;;;;;;5093705;28;20208;-72
2022/04/29 00:17:41;;;;;;;58.58;3.00;;;;;;;;;;5093160;28;20300;-72
2022/04/29 00:20:10;;;;;;;58.47;2.88;;;;;;;;;;5093965;28;20318;-71
2022/04/29 00:22:37;;;;;;;58.58;2.88;;;;;;;;;;5093393;28;20725;-71
2022/04/29 00:25:05;;;;;;;58.58;2.88;;;;;;;;;;5094066;28;20209;-71
2022/04/29 00:27:32;;;;;;;58.42;2.80;;;;;;;;;;5092456;28;20232;-71
2022/04/29 00:30:01;;;;;;;58.53;2.92;;;;;;;;;;5093638;28;20315;-72
2022/04/29 00:32:28;;;;;;;58.60;2.90;;;;;;;;;;5093549;28;20235;-72
2022/04/29 00:34:55;;;;;;;58.47;2.72;;;;;;;;;;5093353;28;20204;-71
2022/04/29 00:37:22;;;;;;;58.55;2.85;;;;;;;;;;5091777;28;20227;-72
2022/04/29 00:39:49;;;;;;;58.47;2.80;;;;;;;;;;5091875;28;20235;-72
2022/04/29 00:42:17;;;;;;;58.40;2.75;;;;;;;;;;5093163;28;20574;-71
2022/04/29 00:44:45;;;;;;;58.28;2.70;;;;;;;;;;5093615;28;20295;-71
2022/04/29 00:47:14;;;;;;;58.60;3.15;;;;;;;;;;5092407;28;20329;-71
2022/04/29 00:49:41;;;;;;;58.58;2.90;;;;;;;;;;5092337;28;20246;-71
2022/04/29 00:52:11;;;;;;;58.30;2.80;;;;;;;;;;5093115;28;20226;-71
2022/04/29 00:54:39;;;;;;;58.72;3.70;;;;;;;;;;5092641;28;20219;-72
2022/04/29 00:57:08;;;;;;;58.38;2.78;;;;;;;;;;5092570;28;20300;-73
2022/04/29 00:59:38;;;;;;;58.38;2.70;;;;;;;;;;5093157;28;20321;-72
2022/04/29 01:02:05;;;;;;;58.53;2.60;;;;;;;;;;5093227;28;20293;-71
2022/04/29 01:04:37;;;;;;;58.55;2.80;;;;;;;;;;5092452;28;20212;-71
2022/04/29 01:07:05;;;;;;;58.47;2.80;;;;;;;;;;5092708;28;20295;-73
2022/04/29 01:09:32;;;;;;;58.50;2.60;;;;;;;;;;5085969;28;20315;-72
2022/04/29 01:12:00;;;;;;;58.47;2.90;;;;;;;;;;5072562;28;20314;-72
2022/04/29 01:14:27;;;;;;;58.45;2.65;;;;;;;;;;5072145;28;20241;-71
2022/04/29 01:16:58;;;;;;;61.10;5.47;;;;;;;;;;5071988;28;20214;-71
2022/04/29 01:19:25;;;;;;;58.58;2.80;;;;;;;;;;5071655;28;20280;-72
2022/04/29 01:21:53;;;;;;;58.65;2.88;;;;;;;;;;5072227;28;20545;-71
2022/04/29 01:24:22;;;;;;;58.60;2.85;;;;;;;;;;5072135;28;20205;-71
2022/04/29 01:26:49;;;;;;;58.40;2.70;;;;;;;;;;5072348;28;20211;-71
2022/04/29 01:29:17;;;;;;;58.47;2.85;;;;;;;;;;5070916;28;20229;-71
2022/04/29 01:31:44;;;;;;;58.47;2.80;;;;;;;;;;5072232;28;20324;-71
2022/04/29 01:34:11;;;;;;;58.47;2.80;;;;;;;;;;5072125;28;20244;-72
2022/04/29 01:36:39;;;;;;;58.55;3.20;;;;;;;;;;5071822;28;20700;-72
2022/04/29 01:39:06;;;;;;;58.60;2.85;;;;;;;;;;5071141;28;20316;-71
2022/04/29 01:41:35;;;;;;;58.30;2.88;;;;;;;;;;5073727;28;20230;-71
2022/04/29 01:44:02;;;;;;;58.38;2.60;;;;;;;;;;5091494;28;20212;-72
2022/04/29 01:46:29;;;;;;;58.72;3.15;;;;;;;;;;5092242;28;20290;-72
2022/04/29 01:48:56;;;;;;;58.17;3.00;;;;;;;;;;5086652;28;20236;-71
2022/04/29 01:51:23;;;;;;;58.35;2.90;;;;;;;;;;5091769;28;20224;-72
2022/04/29 01:53:53;;;;;;;58.38;2.80;;;;;;;;;;5092071;28;20208;-71
2022/04/29 01:56:32;;;;;;;58.30;2.75;;;;;;;;;;5091664;28;20738;-72
2022/04/29 01:59:01;;;;;;;58.25;2.80;;;;;;;;;;5091112;28;20220;-72
2022/04/29 02:01:28;;;;;;;59.45;4.20;;;;;;;;;;5091674;28;20515;-72
2022/04/29 02:03:55;;;;;;;59.15;3.63;;;;;;;;;;5091512;28;20223;-72
2022/04/29 02:06:22;;;;;;;58.38;2.70;;;;;;;;;;5091658;28;20204;-71
2022/04/29 02:08:50;;;;;;;58.38;2.90;;;;;;;;;;5090530;28;20231;-71
2022/04/29 02:11:17;;;;;;;58.22;3.00;;;;;;;;;;5091473;28;20231;-71
2022/04/29 02:13:45;;;;;;;67.60;14.07;;;;;;;;;;5088497;28;20665;-71
2022/04/29 02:16:14;;;;;;;66.25;9.80;;;;;;;;;;5091622;28;20200;-71
2022/04/29 02:18:41;;;;;;;58.45;2.60;;;;;;;;;;5090719;28;20648;-71
2022/04/29 02:21:09;;;;;;;58.55;2.90;;;;;;;;;;5091504;28;20290;-71
2022/04/29 02:23:36;;;;;;;58.55;2.88;;;;;;;;;;5091291;28;20303;-71
2022/04/29 02:26:03;;;;;;;58.60;2.90;;;;;;;;;;5091670;28;20586;-71
2022/04/29 02:28:30;;;;;;;58.38;2.80;;;;;;;;;;5090656;28;20212;-72
2022/04/29 02:30:58;;;;;;;58.38;2.80;;;;;;;;;;5090933;28;20208;-71
2022/04/29 02:33:27;;;;;;;58.67;2.92;;;;;;;;;;5091524;28;20303;-71
2022/04/29 02:35:54;;;;;;;58.38;2.70;;;;;;;;;;5091550;28;20630;-71
2022/04/29 02:38:22;;;;;;;58.50;2.80;;;;;;;;;;5090921;28;20208;-71
2022/04/29 02:40:50;;;;;;;59.38;4.10;;;;;;;;;;5091126;28;20216;-72
2022/04/29 02:43:17;;;;;;;58.45;2.83;;;;;;;;;;5090498;28;20205;-71
2022/04/29 02:45:46;;;;;;;58.33;2.83;;;;;;;;;;5087917;28;20210;-71
2022/04/29 02:48:13;;;;;;;58.38;2.90;;;;;;;;;;5090682;28;20224;-71
2022/04/29 02:50:42;;;;;;;58.47;3.00;;;;;;;;;;5090957;28;20723;-70
2022/04/29 02:53:09;;;;;;;58.40;2.92;;;;;;;;;;5091173;28;20319;-72
2022/04/29 02:55:36;;;;;;;58.90;3.50;;;;;;;;;;5091210;28;20574;-72
2022/04/29 02:58:03;;;;;;;58.58;3.00;;;;;;;;;;5090187;28;20208;-71
2022/04/29 03:00:31;;;;;;;58.20;3.20;;;;;;;;;;5091259;28;20320;-71
2022/04/29 03:02:58;;;;;;;58.30;2.83;;;;;;;;;;5090950;28;20704;-71
2022/04/29 03:05:26;;;;;;;58.65;2.83;;;;;;;;;;5091216;28;20208;-71
2022/04/29 03:07:54;;;;;;;58.47;2.80;;;;;;;;;;5090361;28;20665;-71
2022/04/29 03:10:21;;;;;;;58.58;3.20;;;;;;;;;;5090568;28;20230;-72
2022/04/29 03:12:48;;;;;;;58.58;2.85;;;;;;;;;;5090682;28;20255;-71
2022/04/29 03:15:19;;;;;;;58.58;3.90;;;;;;;;;;5091265;28;20214;-72
2022/04/29 03:20:31;;;;;;;58.67;2.90;;;;;;;;;;5094928;28;20223;-71
2022/04/29 03:23:00;;;;;;;58.80;3.42;;;;;;;;;;5094500;28;20681;-71
2022/04/29 03:25:27;;;;;;;58.60;3.00;;;;;;;;;;5094433;28;20247;-71
2022/04/29 03:27:54;;;;;;;58.28;3.10;;;;;;;;;;5093942;28;20294;-71
2022/04/29 03:30:21;;;;;;;58.13;2.83;;;;;;;;;;5094129;28;20231;-71
2022/04/29 03:32:52;;;;;;;58.58;2.80;;;;;;;;;;5094703;28;20306;-71
2022/04/29 03:35:19;;;;;;;58.35;2.80;;;;;;;;;;5094651;28;20215;-71
2022/04/29 03:37:48;;;;;;;58.10;2.80;;;;;;;;;;5093600;28;20227;-71
2022/04/29 03:40:17;;;;;;;58.67;3.00;;;;;;;;;;5094672;28;20223;-72
2022/04/29 03:42:44;;;;;;;58.47;2.70;;;;;;;;;;5094747;28;20287;-72
2022/04/29 03:45:11;;;;;;;58.20;2.72;;;;;;;;;;5094656;28;20295;-71
2022/04/29 03:47:38;;;;;;;58.25;2.75;;;;;;;;;;5092656;28;20580;-72
2022/04/29 03:50:07;;;;;;;58.80;3.75;;;;;;;;;;5091080;28;20233;-71
2022/04/29 03:52:34;;;;;;;60.03;4.50;;;;;;;;;;5093583;28;20315;-71
2022/04/29 03:55:01;;;;;;;59.30;4.00;;;;;;;;;;5094617;28;20204;-71
2022/04/29 03:57:30;;;;;;;58.55;2.75;;;;;;;;;;5093463;28;20303;-72
2022/04/29 03:59:57;;;;;;;58.47;2.67;;;;;;;;;;5093797;28;20746;-71
2022/04/29 04:02:24;;;;;;;58.53;2.60;;;;;;;;;;5093906;28;20200;-72
2022/04/29 04:04:51;;;;;;;58.47;2.97;;;;;;;;;;5093845;28;20208;-71
2022/04/29 04:07:18;;;;;;;58.15;2.80;;;;;;;;;;5093403;28;20210;-71
2022/04/29 04:09:45;;;;;;;58.58;2.88;;;;;;;;;;5093932;28;20220;-71
2022/04/29 04:12:13;;;;;;;58.13;2.63;;;;;;;;;;5093709;28;20224;-71
2022/04/29 04:14:41;;;;;;;58.38;2.45;;;;;;;;;;5094074;28;20215;-71
2022/04/29 04:17:08;;;;;;;58.47;2.90;;;;;;;;;;5093552;28;20208;-73
2022/04/29 04:19:35;;;;;;;58.47;2.85;;;;;;;;;;5092237;28;20228;-72
2022/04/29 04:22:03;;;;;;;58.67;3.00;;;;;;;;;;5091512;28;20200;-72
2022/04/29 04:24:30;;;;;;;58.58;3.10;;;;;;;;;;5093526;28;20300;-71
2022/04/29 04:26:57;;;;;;;58.58;2.90;;;;;;;;;;5093901;28;20200;-72
2022/04/29 04:29:25;;;;;;;58.08;3.20;;;;;;;;;;5092209;28;20224;-72
2022/04/29 04:31:53;;;;;;;58.45;2.85;;;;;;;;;;5092176;28;20295;-73
2022/04/29 04:37:07;;;;;;;58.45;2.80;;;;;;;;;;5093562;28;20261;-73
2022/04/29 04:39:34;;;;;;;58.70;3.47;;;;;;;;;;5092654;28;20393;-72
2022/04/29 04:42:01;;;;;;;59.00;3.30;;;;;;;;;;5093491;28;20287;-68
2022/04/29 04:44:28;;;;;;;58.38;3.00;;;;;;;;;;5093101;28;20243;-72
2022/04/29 04:46:57;;;;;;;58.38;2.75;;;;;;;;;;5093186;28;20599;-72
2022/04/29 04:49:24;;;;;;;58.28;3.10;;;;;;;;;;5092235;28;20238;-72
2022/04/29 04:51:51;;;;;;;58.40;2.80;;;;;;;;;;5085861;28;20658;-72
2022/04/29 04:54:18;;;;;;;58.28;2.70;;;;;;;;;;5072141;28;20208;-72
2022/04/29 04:56:45;;;;;;;58.40;2.70;;;;;;;;;;5072766;28;20208;-71
2022/04/29 04:59:12;;;;;;;58.47;3.00;;;;;;;;;;5071700;28;20228;-72
2022/04/29 05:01:39;;;;;;;58.38;2.70;;;;;;;;;;5072595;28;20689;-72
2022/04/29 05:04:08;;;;;;;58.45;3.00;;;;;;;;;;5072922;28;20202;-72
2022/04/29 05:06:36;;;;;;;58.28;2.70;;;;;;;;;;5072973;28;20212;-72
2022/04/29 05:09:04;;;;;;;58.28;2.78;;;;;;;;;;5071857;28;20298;-71
2022/04/29 05:11:31;;;;;;;58.17;2.58;;;;;;;;;;5072303;28;20204;-71
2022/04/29 05:13:58;;;;;;;58.40;2.80;;;;;;;;;;5071749;28;20662;-71
2022/04/29 05:16:25;;;;;;;58.47;2.90;;;;;;;;;;5072581;28;20262;-71
2022/04/29 05:18:53;;;;;;;58.30;3.00;;;;;;;;;;5072109;28;20249;-72
2022/04/29 05:21:21;;;;;;;58.38;3.00;;;;;;;;;;5072367;28;20204;-71
2022/04/29 05:23:48;;;;;;;58.28;2.80;;;;;;;;;;5074283;28;20287;-71
2022/04/29 05:26:15;;;;;;;58.30;3.10;;;;;;;;;;5092113;28;20295;-71
2022/04/29 05:28:43;;;;;;;58.38;2.90;;;;;;;;;;5091606;28;20204;-71
2022/04/29 05:31:10;;;;;;;58.17;2.75;;;;;;;;;;5092663;28;20688;-72
2022/04/29 05:33:39;;;;;;;58.25;2.75;;;;;;;;;;5091705;28;20239;-73
2022/04/29 05:36:07;;;;;;;58.20;2.75;;;;;;;;;;5092079;28;20209;-72
2022/04/29 05:44:06;;;;;;;58.10;2.58;;;;;;;;;;5091798;28;20267;-71
2022/04/29 05:46:35;;;;;;;58.05;2.33;;;;;;;;;;5091588;28;20205;-72
2022/04/29 05:49:02;;;;;;;58.08;2.25;;;;;;;;;;5091022;28;20233;-72
2022/04/29 05:51:29;;;;;;;57.83;2.45;;;;;;;;;;5092180;28;20299;-72
2022/04/29 05:54:00;;;;;;;58.08;2.70;;;;;;;;;;5090726;28;20351;-71
2022/04/29 05:56:27;;;;;;;58.25;2.67;;;;;;;;;;5088358;28;20207;-71
2022/04/29 05:58:54;;;;;;;58.50;3.15;;;;;;;;;;5091022;28;20231;-71
2022/04/29 06:01:21;;;;;;;57.85;2.67;;;;;;;;;;5091640;28;20212;-71
2022/04/29 06:03:49;;;;;;;58.45;3.10;;;;;;;;;;5091390;28;20200;-71
2022/04/29 06:06:16;;;;;;;58.40;3.15;;;;;;;;;;5091593;28;20210;-72
2022/04/29 06:08:43;;;;;;;58.00;2.70;;;;;;;;;;5090956;28;20296;-71
2022/04/29 06:11:12;;;;;;;57.97;2.57;;;;;;;;;;5091528;28;20213;-72
2022/04/29 06:13:39;;;;;;;58.07;2.50;;;;;;;;;;5091193;28;20508;-72
2022/04/29 06:16:06;;;;;;;57.97;2.50;;;;;;;;;;5091628;28;20740;-71
2022/04/29 06:18:34;;;;;;;57.97;2.67;;;;;;;;;;5090843;28;20444;-71
2022/04/29 06:21:01;;;;;;;57.87;2.70;;;;;;;;;;5091382;28;20456;-72
2022/04/29 06:23:29;;;;;;;57.73;2.60;;;;;;;;;;5091551;28;20971;-72
2022/04/29 06:25:56;;;;;;;57.77;2.60;;;;;;;;;;5090679;28;20824;-72
2022/04/29 06:28:25;;;;;;;57.97;2.43;;;;;;;;;;5088373;28;20949;-71
2022/04/29 06:30:52;;;;;;;58.20;2.80;;;;;;;;;;5091142;28;20580;-71
2022/04/29 06:33:20;;;;;;;57.83;2.17;;;;;;;;;;5090692;28;20578;-71
2022/04/29 06:35:50;;;;;;;57.87;2.40;;;;;;;;;;5091678;28;20482;-71
2022/04/29 06:38:17;;;;;;;57.90;2.47;;;;;;;;;;5090328;28;20802;-72
2022/04/29 06:40:44;;;;;;;57.87;2.50;;;;;;;;;;5091081;28;20468;-72
2022/04/29 06:43:11;;;;;;;57.77;2.60;;;;;;;;;;5091098;28;20447;-72
2022/04/29 06:45:40;;;;;;;57.97;2.70;;;;;;;;;;5091418;28;20674;-72
2022/04/29 06:48:07;;;;;;;57.77;2.37;;;;;;;;;;5090538;28;20469;-72
2022/04/29 06:50:34;;;;;;;57.87;2.70;;;;;;;;;;5091327;28;20500;-72
2022/04/29 06:53:01;;;;;;;57.83;2.60;;;;;;;;;;5091026;28;20487;-72
2022/04/29 06:55:29;;;;;;;57.70;2.50;;;;;;;;;;5095147;28;20986;-72
2022/04/29 06:57:56;;;;;;;57.70;2.40;;;;;;;;;;5093729;28;20544;-72
2022/04/29 07:00:23;;;;;;;58.10;2.83;;;;;;;;;;5095074;28;20473;-72
2022/04/29 07:02:52;;;;;;;57.87;2.50;;;;;;;;;;5095535;28;20445;-71
2022/04/29 07:05:19;;;;;;;57.97;2.60;;;;;;;;;;5091963;28;20487;-71
2022/04/29 07:07:49;;;;;;;57.73;2.40;;;;;;;;;;5093981;28;20934;-71
2022/04/29 07:10:16;;;;;;;57.87;2.60;;;;;;;;;;5094133;28;20474;-72
2022/04/29 07:12:43;;;;;;;57.73;2.53;;;;;;;;;;5094872;28;20449;-72
2022/04/29 07:15:11;;;;;;;58.10;2.90;;;;;;;;;;5094525;28;20481;-72
2022/04/29 07:17:38;;;;;;;58.17;2.70;;;;;;;;;;5094156;28;20532;-71
2022/04/29 07:20:08;;;;;;;57.77;2.33;;;;;;;;;;5094469;28;20472;-72
2022/04/29 07:22:38;;;;;;;57.83;2.50;;;;;;;;;;5094863;28;20449;-72
2022/04/29 07:25:05;;;;;;;57.97;2.57;;;;;;;;;;5094765;28;20454;-72
2022/04/29 07:27:33;;;;;;;57.83;2.63;;;;;;;;;;5094085;28;20465;-71
2022/04/29 07:30:00;;;;;;;57.87;2.40;;;;;;;;;;5094352;28;20461;-71
2022/04/29 07:32:27;;;;;;;58.00;2.50;;;;;;;;;;5094615;28;20441;-71
2022/04/29 07:43:11;;;;;;;59.47;5.17;;;;;;;;;;5095149;28;20422;-72
2022/04/29 07:45:39;;;;;;;58.03;2.63;;;;;;;;;;5094165;28;20544;-72
2022/04/29 07:48:07;;;;;;;57.90;2.40;;;;;;;;;;5093430;28;20454;-72
2022/04/29 07:50:34;;;;;;;58.13;2.60;;;;;;;;;;5094184;28;20468;-72
2022/04/29 07:53:03;;;;;;;57.80;2.47;;;;;;;;;;5094155;28;20998;-72
2022/04/29 07:55:30;;;;;;;58.03;2.60;;;;;;;;;;5094010;28;20454;-71
2022/04/29 07:57:57;;;;;;;58.07;2.70;;;;;;;;;;5093283;28;20957;-72
2022/04/29 08:00:24;;;;;;;58.07;2.43;;;;;;;;;;5093708;28;20458;-70
2022/04/29 08:02:52;;;;;;;57.97;2.50;;;;;;;;;;5094473;28;20743;-70
2022/04/29 08:05:19;;;;;;;58.00;2.50;;;;;;;;;;5093973;28;20493;-70
2022/04/29 08:07:47;;;;;;;58.07;2.43;;;;;;;;;;5089704;28;20448;-70
2022/04/29 08:10:16;;;;;;;57.97;2.57;;;;;;;;;;5093405;28;20871;-70
2022/04/29 08:12:43;;;;;;;57.83;2.60;;;;;;;;;;5093556;28;20458;-70
2022/04/29 08:15:11;;;;;;;57.57;2.60;;;;;;;;;;5093699;28;20793;-70
2022/04/29 08:17:39;;;;;;;58.07;2.67;;;;;;;;;;5093014;28;20457;-70
2022/04/29 08:20:07;;;;;;;57.83;2.30;;;;;;;;;;5093522;28;20504;-70
2022/04/29 08:22:35;;;;;;;58.07;2.97;;;;;;;;;;5093675;28;20481;-70
2022/04/29 08:25:02;;;;;;;57.90;2.40;;;;;;;;;;5093608;28;20502;-71
2022/04/29 08:27:31;;;;;;;57.93;2.30;;;;;;;;;;5092673;28;20544;-71
2022/04/29 08:29:58;;;;;;;57.93;2.30;;;;;;;;;;5093435;28;20537;-71
2022/04/29 08:32:25;;;;;;;57.77;2.60;;;;;;;;;;5093451;28;20448;-71
2022/04/29 08:34:52;;;;;;;57.90;2.60;;;;;;;;;;5093264;28;20498;-71
2022/04/29 08:37:20;;;;;;;57.83;2.10;;;;;;;;;;5092696;28;20445;-71
2022/04/29 08:39:47;;;;;;;57.73;2.20;;;;;;;;;;5081945;28;20477;-70
2022/04/29 08:42:16;;;;;;;57.77;2.17;;;;;;;;;;5073157;28;20462;-71
2022/04/29 08:44:44;;;;;;;57.87;2.20;;;;;;;;;;5073270;28;20452;-71
2022/04/29 08:47:12;;;;;;;57.57;2.20;;;;;;;;;;5072145;28;20493;-71
2022/04/29 08:49:39;;;;;;;57.67;2.40;;;;;;;;;;5072338;28;20483;-71
2022/04/29 08:52:06;;;;;;;57.77;2.20;;;;;;;;;;5072885;28;20711;-71
2022/04/29 09:00:06;;;;;;;57.80;2.30;;;;;;;;;;5072596;28;20512;-71
2022/04/29 09:02:39;;;;;;;57.57;2.67;;;;;;;;;;5072493;28;20454;-71
2022/04/29 09:05:08;;;;;;;57.57;2.50;;;;;;;;;;5072677;28;20899;-71
2022/04/29 09:07:54;;;;;;;58.03;2.30;;;;;;;;;;5071961;28;20454;-71
2022/04/29 09:10:22;;;;;;;58.57;3.80;;;;;;;;;;5070441;28;20478;-70
2022/04/29 09:12:49;;;;;;;57.77;2.40;;;;;;;;;;5091972;28;20822;-71
2022/04/29 09:15:18;;;;;;;58.07;2.17;;;;;;;;;;5092126;28;20497;-71
2022/04/29 09:17:46;;;;;;;57.40;2.30;;;;;;;;;;5091006;28;20889;-71
2022/04/29 09:20:18;;;;;;;58.57;3.50;;;;;;;;;;5092422;28;20470;-71
2022/04/29 09:22:47;;;;;;;57.70;2.67;;;;;;;;;;5092424;28;20542;-71
2022/04/29 09:25:14;;;;;;;57.77;3.43;;;;;;;;;;5092696;28;20435;-71
2022/04/29 09:27:54;;;;;;;57.53;2.20;;;;;;;;;;5091363;28;21018;-71
2022/04/29 09:30:33;;;;;;;57.63;2.40;;;;;;;;;;5092411;28;20489;-71
2022/04/29 09:33:00;;;;;;;57.67;2.47;;;;;;;;;;5092137;28;20447;-71
2022/04/29 09:35:37;;;;;;;57.30;2.50;;;;;;;;;;5092116;28;20513;-71
2022/04/29 09:40:50;;;;;;;57.67;2.50;;;;;;;;;;5091304;28;20515;-71
2022/04/29 09:43:17;;;;;;;57.87;2.20;;;;;;;;;;5089281;28;20479;-72
2022/04/29 09:45:45;;;;;;;58.00;2.83;;;;;;;;;;5092278;28;20439;-72
2022/04/29 09:48:13;;;;;;;57.87;2.23;;;;;;;;;;5090908;28;20546;-71
2022/04/29 09:50:47;;;;;;;57.70;2.00;;;;;;;;;;5092150;28;20468;-71
2022/04/29 09:53:17;;;;;;;57.50;2.17;;;;;;;;;;5091665;28;20453;-71
2022/04/29 09:56:05;;;;;;;57.53;2.00;;;;;;;;;;5091826;28;20450;-71
2022/04/29 09:58:32;;;;;;;57.43;2.13;;;;;;;;;;5091097;28;20996;-71
2022/04/29 10:01:01;;;;;;;57.73;2.07;;;;;;;;;;5091591;28;20443;-71
2022/04/29 10:03:29;;;;;;;57.40;2.00;;;;;;;;;;5091982;28;20455;-71
2022/04/29 10:05:57;;;;;;;57.50;2.30;;;;;;;;;;5092162;28;20606;-72
2022/04/29 10:08:26;;;;;;;57.27;2.03;;;;;;;;;;5090875;28;20541;-71
2022/04/29 10:10:55;;;;;;;57.63;2.40;;;;;;;;;;5091552;28;20537;-72
2022/04/29 10:13:24;;;;;;;57.67;2.20;;;;;;;;;;5089029;28;20848;-71
2022/04/29 10:15:52;;;;;;;57.80;1.90;;;;;;;;;;5090968;28;20817;-72
2022/04/29 10:21:17;;;;;;;56.80;1.83;;;;;;;;;;5091437;28;20519;-71
2022/04/29 10:23:48;;;;;;;57.33;2.20;;;;;;;;;;5091521;28;20484;-71
2022/04/29 10:26:17;;;;;;;57.47;2.13;;;;;;;;;;5091284;28;20450;-72
2022/04/29 10:28:44;;;;;;;57.47;1.93;;;;;;;;;;5090666;28;20471;-72
2022/04/29 10:31:17;;;;;;;57.67;2.00;;;;;;;;;;5091484;28;20525;-72
2022/04/29 10:33:45;;;;;;;57.57;2.20;;;;;;;;;;5091263;28;20488;-71
2022/04/29 10:36:14;;;;;;;57.97;2.57;;;;;;;;;;5091173;28;20830;-72
2022/04/29 10:38:43;;;;;;;57.80;2.20;;;;;;;;;;5090358;28;20475;-72
2022/04/29 10:41:15;;;;;;;57.37;1.87;;;;;;;;;;5091035;28;20461;-72
2022/04/29 10:43:45;;;;;;;57.57;1.80;;;;;;;;;;5091591;28;20454;-72
2022/04/29 10:46:21;;;;;;;57.50;1.90;;;;;;;;;;5087861;28;20457;-72
2022/04/29 10:48:50;;;;;;;57.50;1.73;;;;;;;;;;5090313;28;20481;-72
2022/04/29 10:51:18;;;;;;;57.40;1.80;;;;;;;;;;5091275;28;20531;-72
2022/04/29 10:53:46;;;;;;;57.30;1.70;;;;;;;;;;5091044;28;20450;-73
2022/04/29 10:56:32;;;;;;;57.43;1.80;;;;;;;;;;5091070;28;20453;-72
2022/04/29 10:59:00;;;;;;;57.37;1.83;;;;;;;;;;5090348;28;20458;-72
2022/04/29 11:01:31;;;;;;;57.37;1.80;;;;;;;;;;5090824;28;20453;-72
2022/04/29 11:03:59;;;;;;;57.27;1.70;;;;;;;;;;5091226;28;20446;-72
2022/04/29 11:06:37;;;;;;;57.37;1.70;;;;;;;;;;5091296;28;20449;-72
2022/04/29 11:09:04;;;;;;;57.37;1.80;;;;;;;;;;5090460;28;20515;-72
2022/04/29 11:11:43;;;;;;;57.27;1.77;;;;;;;;;;5091207;28;20540;-73
2022/04/29 11:14:12;;;;;;;56.97;1.70;;;;;;;;;;5090880;28;20843;-72
2022/04/29 11:16:49;;;;;;;56.97;1.67;;;;;;;;;;5086422;28;20573;-72
2022/04/29 11:19:21;;;;;;;57.07;1.80;;;;;;;;;;5089975;28;20468;-70
2022/04/29 11:24:42;;;;;;;56.73;1.50;;;;;;;;;;5091549;28;20500;-71
2022/04/29 11:27:10;;;;;;;56.77;1.60;;;;;;;;;;5090132;28;20532;-71
2022/04/29 11:29:42;;;;;;;57.00;1.80;;;;;;;;;;5090757;28;20472;-70
2022/04/29 11:32:10;;;;;;;57.00;1.70;;;;;;;;;;5090672;28;20456;-72
2022/04/29 11:34:51;;;;;;;56.83;1.60;;;;;;;;;;5090600;28;20928;-70
2022/04/29 11:37:23;;;;;;;57.17;1.80;;;;;;;;;;5089808;28;20451;-73
2022/04/29 11:39:50;;;;;;;57.17;1.80;;;;;;;;;;5092485;28;20462;-70
2022/04/29 11:42:19;;;;;;;57.50;1.90;;;;;;;;;;5094614;28;20459;-72
2022/04/29 11:44:49;;;;;;;57.43;1.90;;;;;;;;;;5094499;28;20965;-72
2022/04/29 11:47:17;;;;;;;57.63;1.90;;;;;;;;;;5094137;28;20481;-71
2022/04/29 11:49:45;;;;;;;57.27;1.90;;;;;;;;;;5090468;28;20549;-72
2022/04/29 11:52:19;;;;;;;57.50;1.90;;;;;;;;;;5094063;28;20442;-72
2022/04/29 11:54:50;;;;;;;57.53;2.03;;;;;;;;;;5094076;28;20566;-72
2022/04/29 11:57:17;;;;;;;57.57;1.90;;;;;;;;;;5093180;28;20462;-70
2022/04/29 11:59:45;;;;;;;57.97;2.50;;;;;;;;;;5093832;28;20473;-69
2022/04/29 12:02:12;;;;;;;57.37;1.90;;;;;;;;;;5094437;28;20438;-70
2022/04/29 12:04:53;;;;;;;57.83;2.10;;;;;;;;;;5094306;28;20461;-70
2022/04/29 12:07:21;;;;;;;57.90;2.40;;;;;;;;;;5093561;28;20450;-70
2022/04/29 12:09:48;;;;;;;57.67;2.53;;;;;;;;;;5093622;28;20472;-70
2022/04/29 12:12:25;;;;;;;57.73;2.33;;;;;;;;;;5093619;28;20546;-70
2022/04/29 12:14:52;;;;;;;57.50;2.20;;;;;;;;;;5094002;28;20482;-70
2022/04/29 12:17:19;;;;;;;57.67;2.10;;;;;;;;;;5092983;28;20468;-71
2022/04/29 12:19:48;;;;;;;57.70;2.20;;;;;;;;;;5093231;28;20502;-71
2022/04/29 12:22:28;;;;;;;57.43;1.97;;;;;;;;;;5093278;28;20805;-70
2022/04/29 12:24:56;;;;;;;57.57;1.90;;;;;;;;;;5093827;28;20444;-71
2022/04/29 12:27:29;;;;;;;57.37;2.00;;;;;;;;;;5093539;28;20447;-70
2022/04/29 12:35:28;;;;;;;57.47;2.00;;;;;;;;;;5093572;28;20634;-70
2022/04/29 12:37:55;;;;;;;57.47;1.77;;;;;;;;;;5093349;28;20453;-71
2022/04/29 12:40:29;;;;;;;57.40;1.83;;;;;;;;;;5093818;28;20842;-70
2022/04/29 12:43:09;;;;;;;57.20;1.70;;;;;;;;;;5093757;28;20449;-70
2022/04/29 12:45:37;;;;;;;57.63;2.37;;;;;;;;;;5093562;28;20555;-70
2022/04/29 12:48:05;;;;;;;57.33;1.80;;;;;;;;;;5093087;28;21220;-71
2022/04/29 12:50:36;;;;;;;57.37;1.80;;;;;;;;;;5092996;28;20469;-71
2022/04/29 12:53:04;;;;;;;57.20;2.23;;;;;;;;;;5093143;28;20446;-71
2022/04/29 12:55:35;;;;;;;57.17;1.80;;;;;;;;;;5093490;28;20486;-71
2022/04/29 12:58:06;;;;;;;57.27;1.77;;;;;;;;;;5092737;28;20481;-71
2022/04/29 13:00:34;;;;;;;57.03;1.70;;;;;;;;;;5093231;28;20466;-71
2022/04/29 13:03:05;;;;;;;56.93;1.60;;;;;;;;;;5093469;28;20535;-71
2022/04/29 13:05:32;;;;;;;57.50;2.87;;;;;;;;;;5093445;28;20864;-71
2022/04/29 13:07:59;;;;;;;56.90;2.10;;;;;;;;;;5092519;28;20452;-71
2022/04/29 13:10:26;;;;;;;56.87;1.70;;;;;;;;;;5093155;28;20474;-71
2022/04/29 13:12:56;;;;;;;57.00;1.90;;;;;;;;;;5092959;28;20453;-71
2022/04/29 13:15:23;;;;;;;56.73;1.70;;;;;;;;;;5093016;28;20512;-71
2022/04/29 13:17:50;;;;;;;56.87;1.83;;;;;;;;;;5092619;28;20446;-71
2022/04/29 13:20:17;;;;;;;57.00;1.90;;;;;;;;;;5093024;28;20854;-70
2022/04/29 13:22:44;;;;;;;56.77;1.60;;;;;;;;;;5092996;28;21006;-70
2022/04/29 13:25:11;;;;;;;57.00;2.30;;;;;;;;;;5092866;28;20442;-71
2022/04/29 13:27:39;;;;;;;56.63;1.67;;;;;;;;;;5092123;28;20456;-71
2022/04/29 13:30:08;;;;;;;56.63;1.70;;;;;;;;;;5092743;28;21020;-70
2022/04/29 13:32:35;;;;;;;56.67;1.70;;;;;;;;;;5092850;28;20450;-71
2022/04/29 13:35:03;;;;;;;56.67;1.80;;;;;;;;;;5093036;28;20474;-70
2022/04/29 13:37:35;;;;;;;56.97;1.80;;;;;;;;;;5093559;28;20515;-71
2022/04/29 13:40:03;;;;;;;56.97;1.90;;;;;;;;;;5092774;28;20553;-70
2022/04/29 13:42:30;;;;;;;57.10;2.43;;;;;;;;;;5092855;28;20461;-71
2022/04/29 13:44:58;;;;;;;57.20;2.00;;;;;;;;;;5092728;28;20449;-71
2022/04/29 13:47:27;;;;;;;57.20;2.03;;;;;;;;;;5092088;28;20450;-71
2022/04/29 13:49:54;;;;;;;56.97;1.80;;;;;;;;;;5092437;28;20516;-70
2022/04/29 13:55:07;;;;;;;56.93;1.60;;;;;;;;;;5092577;28;20848;-70
2022/04/29 13:57:34;;;;;;;59.43;2.93;;;;;;;;;;5091675;28;20450;-70
2022/04/29 14:00:03;;;;;;;57.60;2.20;;;;;;;;;;5092474;28;20841;-70
2022/04/29 14:02:32;;;;;;;57.27;1.73;;;;;;;;;;5092019;28;20504;-70
2022/04/29 14:05:01;;;;;;;57.00;1.63;;;;;;;;;;5092333;28;20821;-70
2022/04/29 14:07:28;;;;;;;57.17;1.60;;;;;;;;;;5091685;28;20455;-72
2022/04/29 14:09:55;;;;;;;57.37;1.83;;;;;;;;;;5092177;28;20473;-71
2022/04/29 14:12:25;;;;;;;57.30;1.73;;;;;;;;;;5092293;28;20525;-70
2022/04/29 14:14:53;;;;;;;57.37;1.80;;;;;;;;;;5092148;28;20478;-70
2022/04/29 14:17:20;;;;;;;57.33;1.80;;;;;;;;;;5091484;28;20450;-72
2022/04/29 14:19:48;;;;;;;57.67;2.30;;;;;;;;;;5092122;28;20466;-72
2022/04/29 14:22:16;;;;;;;57.17;1.90;;;;;;;;;;5091869;28;20454;-72
2022/04/29 14:24:43;;;;;;;57.47;2.07;;;;;;;;;;5092202;28;20550;-72
2022/04/29 14:27:12;;;;;;;57.50;2.20;;;;;;;;;;5091405;28;20442;-72
2022/04/29 14:29:39;;;;;;;57.43;1.80;;;;;;;;;;5092030;28;20477;-72
2022/04/29 14:32:08;;;;;;;57.50;1.80;;;;;;;;;;5091878;28;20442;-72
2022/04/29 14:34:36;;;;;;;57.43;1.90;;;;;;;;;;5092035;28;20937;-72
2022/04/29 14:37:04;;;;;;;57.50;1.80;;;;;;;;;;5092315;28;20441;-72
2022/04/29 14:39:31;;;;;;;57.17;1.70;;;;;;;;;;5091592;28;20463;-70
2022/04/29 14:41:59;;;;;;;57.40;1.90;;;;;;;;;;5091914;28;20842;-71
2022/04/29 14:44:26;;;;;;;57.07;1.80;;;;;;;;;;5091755;28;20453;-71
2022/04/29 14:46:53;;;;;;;57.37;1.80;;;;;;;;;;5092053;28;20434;-69
2022/04/29 14:49:20;;;;;;;57.20;1.80;;;;;;;;;;5091051;28;20493;-71
2022/04/29 14:51:48;;;;;;;57.20;1.80;;;;;;;;;;5091900;28;20824;-71
2022/04/29 14:54:16;;;;;;;57.17;1.90;;;;;;;;;;5091782;28;20532;-71
2022/04/29 14:56:43;;;;;;;57.47;1.87;;;;;;;;;;5091602;28;20478;-71
2022/04/29 14:59:11;;;;;;;57.37;2.20;;;;;;;;;;5090982;28;20856;-71
2022/04/29 15:01:38;;;;;;;57.53;2.00;;;;;;;;;;5092036;28;20512;-71
2022/04/29 15:04:07;;;;;;;57.60;2.37;;;;;;;;;;5091787;28;20442;-71
2022/04/29 15:06:35;;;;;;;57.23;1.80;;;;;;;;;;5091674;28;20458;-72
2022/04/29 15:17:18;;;;;;;57.20;1.67;;;;;;;;;;5095074;28;20556;-72
2022/04/29 15:19:46;;;;;;;57.13;1.80;;;;;;;;;;5095143;28;20990;-72
2022/04/29 15:22:13;;;;;;;57.07;1.80;;;;;;;;;;5095748;28;20442;-72
2022/04/29 15:24:41;;;;;;;57.27;1.80;;;;;;;;;;5095555;28;20482;-72
2022/04/29 15:27:09;;;;;;;57.27;1.70;;;;;;;;;;5095003;28;20441;-71